Time;durP1;ratioP1;P1;durP2;ratioP2;P2;SDS_P1;SDS_P2;PMS_P1;PMS_P2;Temp;Humidity;BMP_temperature;BMP_pressure;BME280_temperature;BME280_humidity;BME280_pressure;Samples;Min_cycle;Max_cycle;Signal;HPM_P1;HPM_P2
2022/03/10 00:01:04;;;;;;;9.33;5.90;;;;;;;;;;5042210;28;20641;-84
2022/03/10 00:04:09;;;;;;;7.93;5.90;;;;;;;;;;5065395;28;20531;-84
2022/03/10 00:07:14;;;;;;;11.10;6.60;;;;;;;;;;5065672;28;20555;-84
2022/03/10 00:10:18;;;;;;;10.50;7.27;;;;;;;;;;5039165;28;20649;-83
2022/03/10 00:13:26;;;;;;;11.23;7.60;;;;;;;;;;5053499;28;20601;-84
2022/03/10 00:16:31;;;;;;;10.10;6.93;;;;;;;;;;5053567;28;20541;-83
2022/03/10 00:19:35;;;;;;;13.50;7.57;;;;;;;;;;5064141;28;21249;-84
2022/03/10 00:22:47;;;;;;;13.03;7.40;;;;;;;;;;5053477;28;20538;-84
2022/03/10 00:25:52;;;;;;;12.07;7.43;;;;;;;;;;5053442;28;20589;-84
2022/03/10 00:28:56;;;;;;;12.83;7.63;;;;;;;;;;5041547;28;20601;-84
2022/03/10 00:32:01;;;;;;;12.63;8.07;;;;;;;;;;5041650;28;20672;-83
2022/03/10 00:35:05;;;;;;;10.90;6.73;;;;;;;;;;5052141;28;20630;-84
2022/03/10 00:38:10;;;;;;;10.40;7.00;;;;;;;;;;5041582;28;20592;-84
2022/03/10 00:41:14;;;;;;;11.37;6.70;;;;;;;;;;5053203;28;21182;-84
2022/03/10 00:44:20;;;;;;;11.50;6.70;;;;;;;;;;5052785;28;20625;-84
2022/03/10 00:47:25;;;;;;;10.60;6.47;;;;;;;;;;5052995;28;20593;-84
2022/03/10 00:50:29;;;;;;;12.33;6.67;;;;;;;;;;5021366;28;20645;-85
2022/03/10 00:53:34;;;;;;;11.13;6.77;;;;;;;;;;5028037;28;20656;-85
2022/03/10 00:56:38;;;;;;;10.53;6.97;;;;;;;;;;5039542;28;20606;-86
2022/03/10 00:59:43;;;;;;;7.97;5.77;;;;;;;;;;5039387;28;20648;-85
2022/03/10 01:02:47;;;;;;;13.47;6.07;;;;;;;;;;5051216;28;21156;-85
2022/03/10 01:05:51;;;;;;;10.67;6.43;;;;;;;;;;5050610;28;20629;-85
2022/03/10 01:08:56;;;;;;;10.97;7.10;;;;;;;;;;5050604;28;20597;-85
2022/03/10 01:12:00;;;;;;;9.80;6.13;;;;;;;;;;5039669;28;20597;-85
2022/03/10 01:15:05;;;;;;;9.97;6.63;;;;;;;;;;5042332;28;20882;-85
2022/03/10 01:18:09;;;;;;;8.83;6.17;;;;;;;;;;5042603;28;20547;-85
2022/03/10 01:21:14;;;;;;;9.80;6.47;;;;;;;;;;5030961;28;21156;-86
2022/03/10 01:24:18;;;;;;;9.47;6.10;;;;;;;;;;5055779;28;20957;-85
2022/03/10 01:27:23;;;;;;;11.17;6.23;;;;;;;;;;5038991;28;20617;-86
2022/03/10 01:30:27;;;;;;;9.07;6.40;;;;;;;;;;5039032;28;20641;-85
2022/03/10 01:33:31;;;;;;;10.03;6.10;;;;;;;;;;5037714;28;20657;-85
2022/03/10 01:36:35;;;;;;;9.10;5.93;;;;;;;;;;5062462;28;20549;-85
2022/03/10 01:39:40;;;;;;;8.57;5.90;;;;;;;;;;5039080;28;20621;-85
2022/03/10 01:42:45;;;;;;;8.80;5.70;;;;;;;;;;5039023;28;20542;-85
2022/03/10 01:45:50;;;;;;;11.03;6.97;;;;;;;;;;5039134;28;20605;-85
2022/03/10 01:48:55;;;;;;;12.07;7.63;;;;;;;;;;5050113;28;20627;-85
2022/03/10 01:52:00;;;;;;;12.43;7.87;;;;;;;;;;5039029;28;20555;-85
2022/03/10 01:55:05;;;;;;;14.73;8.10;;;;;;;;;;5030322;28;20547;-85
2022/03/10 01:58:10;;;;;;;14.63;7.83;;;;;;;;;;5030515;28;20555;-85
2022/03/10 02:01:16;;;;;;;13.20;8.30;;;;;;;;;;5039634;28;20593;-85
2022/03/10 02:04:20;;;;;;;14.37;8.50;;;;;;;;;;5061601;28;20550;-85
2022/03/10 02:10:47;;;;;;;13.33;8.03;;;;;;;;;;5049674;28;20648;-85
2022/03/10 02:13:52;;;;;;;12.90;7.83;;;;;;;;;;5038200;28;20632;-85
2022/03/10 02:20:19;;;;;;;13.07;7.73;;;;;;;;;;5061265;28;20981;-85
2022/03/10 02:23:25;;;;;;;9.90;6.83;;;;;;;;;;5060853;28;20598;-85
2022/03/10 02:26:29;;;;;;;13.40;7.67;;;;;;;;;;5061004;28;20934;-85
2022/03/10 02:29:33;;;;;;;11.50;6.77;;;;;;;;;;5049619;28;20660;-85
2022/03/10 02:32:39;;;;;;;13.13;7.23;;;;;;;;;;5049922;28;20631;-85
2022/03/10 02:35:43;;;;;;;11.33;6.43;;;;;;;;;;5038261;28;20597;-85
2022/03/10 02:38:48;;;;;;;9.83;6.47;;;;;;;;;;5060951;28;20605;-85
2022/03/10 02:41:52;;;;;;;10.93;6.67;;;;;;;;;;5049543;28;21092;-85
2022/03/10 02:44:56;;;;;;;11.17;7.40;;;;;;;;;;5029753;28;21106;-85
2022/03/10 02:48:00;;;;;;;10.80;6.87;;;;;;;;;;5052222;28;21210;-85
2022/03/10 02:51:04;;;;;;;10.80;6.40;;;;;;;;;;5053423;28;20640;-85
2022/03/10 02:54:08;;;;;;;11.37;6.27;;;;;;;;;;5037948;28;20992;-85
2022/03/10 02:57:14;;;;;;;9.60;6.33;;;;;;;;;;5037882;28;20948;-85
2022/03/10 03:00:20;;;;;;;9.97;6.80;;;;;;;;;;5038264;28;20634;-85
2022/03/10 03:03:26;;;;;;;12.13;6.93;;;;;;;;;;5022199;28;20926;-85
2022/03/10 03:06:30;;;;;;;9.23;6.40;;;;;;;;;;5043771;28;20951;-85
2022/03/10 03:09:36;;;;;;;10.37;6.43;;;;;;;;;;5038172;28;20633;-85
2022/03/10 03:12:51;;;;;;;10.30;6.20;;;;;;;;;;5037894;28;20633;-85
2022/03/10 03:15:56;;;;;;;8.30;5.67;;;;;;;;;;5073221;28;21093;-85
2022/03/10 03:19:02;;;;;;;12.03;6.63;;;;;;;;;;5060761;28;20636;-85
2022/03/10 03:22:06;;;;;;;14.40;6.67;;;;;;;;;;5060252;28;20604;-85
2022/03/10 03:25:12;;;;;;;9.80;6.30;;;;;;;;;;5052493;28;21103;-86
2022/03/10 03:28:19;;;;;;;12.23;5.93;;;;;;;;;;5052846;28;20934;-85
2022/03/10 03:31:25;;;;;;;9.80;6.20;;;;;;;;;;5064343;28;21103;-85
2022/03/10 03:34:32;;;;;;;9.47;5.70;;;;;;;;;;5053018;28;20657;-85
2022/03/10 03:37:45;;;;;;;9.90;5.90;;;;;;;;;;5065167;28;20542;-85
2022/03/10 03:40:50;;;;;;;11.30;6.27;;;;;;;;;;5041698;28;20625;-85
2022/03/10 03:43:54;;;;;;;10.87;5.70;;;;;;;;;;5032752;28;20548;-85
2022/03/10 03:46:58;;;;;;;11.70;6.73;;;;;;;;;;5033257;28;20960;-85
2022/03/10 03:50:04;;;;;;;11.67;6.00;;;;;;;;;;5041244;28;20644;-85
2022/03/10 03:53:12;;;;;;;11.13;6.67;;;;;;;;;;5052700;28;20620;-85
2022/03/10 03:56:17;;;;;;;10.13;6.10;;;;;;;;;;5075981;28;20618;-86
2022/03/10 03:59:21;;;;;;;11.40;6.33;;;;;;;;;;5063824;28;21231;-85
2022/03/10 04:02:25;;;;;;;10.27;6.37;;;;;;;;;;5040317;28;20588;-85
2022/03/10 04:05:29;;;;;;;12.83;7.10;;;;;;;;;;5032284;28;20552;-85
2022/03/10 04:08:35;;;;;;;14.27;7.87;;;;;;;;;;5032594;28;20559;-85
2022/03/10 04:11:46;;;;;;;16.33;8.07;;;;;;;;;;5061132;28;20604;-85
2022/03/10 04:14:52;;;;;;;14.93;7.83;;;;;;;;;;5040727;28;20638;-85
2022/03/10 04:17:56;;;;;;;12.47;7.97;;;;;;;;;;5051968;28;20612;-85
2022/03/10 04:21:00;;;;;;;10.63;7.03;;;;;;;;;;5040387;28;20636;-85
2022/03/10 04:24:05;;;;;;;11.90;7.40;;;;;;;;;;5040348;28;20580;-85
2022/03/10 04:27:09;;;;;;;13.13;7.27;;;;;;;;;;5052159;28;21155;-85
2022/03/10 04:30:14;;;;;;;12.47;7.23;;;;;;;;;;5051503;28;20642;-85
2022/03/10 04:33:19;;;;;;;12.17;7.20;;;;;;;;;;5051101;28;20638;-85
2022/03/10 04:36:25;;;;;;;11.97;7.57;;;;;;;;;;5040386;28;20549;-85
2022/03/10 04:39:36;;;;;;;11.03;6.87;;;;;;;;;;5041718;28;20968;-85
2022/03/10 04:42:42;;;;;;;12.20;7.67;;;;;;;;;;5062470;28;20640;-85
2022/03/10 04:45:47;;;;;;;13.40;7.60;;;;;;;;;;5032111;28;20612;-85
2022/03/10 04:48:51;;;;;;;12.20;7.17;;;;;;;;;;5039872;28;21201;-84
2022/03/10 04:51:57;;;;;;;10.80;7.13;;;;;;;;;;5051492;28;20604;-85
2022/03/10 04:55:05;;;;;;;11.60;7.47;;;;;;;;;;5039718;28;20621;-85
2022/03/10 04:58:11;;;;;;;11.50;6.80;;;;;;;;;;5062707;28;20605;-85
2022/03/10 05:01:16;;;;;;;13.37;7.13;;;;;;;;;;5051493;28;20546;-85
2022/03/10 05:04:20;;;;;;;12.73;7.53;;;;;;;;;;5039808;28;20606;-85
2022/03/10 05:07:26;;;;;;;12.97;7.20;;;;;;;;;;5051019;28;20692;-85
2022/03/10 05:10:30;;;;;;;12.93;6.60;;;;;;;;;;5039560;28;20636;-85
2022/03/10 05:13:35;;;;;;;13.27;7.03;;;;;;;;;;5039147;28;20724;-85
2022/03/10 05:16:41;;;;;;;11.80;6.87;;;;;;;;;;5050603;28;20605;-85
2022/03/10 05:19:45;;;;;;;13.70;7.13;;;;;;;;;;5050812;28;21023;-85
2022/03/10 05:22:55;;;;;;;13.43;7.93;;;;;;;;;;5039344;28;20630;-85
2022/03/10 05:25:59;;;;;;;16.27;7.53;;;;;;;;;;5039594;28;20553;-85
2022/03/10 05:29:04;;;;;;;13.37;7.77;;;;;;;;;;5038672;28;21159;-85
2022/03/10 05:32:10;;;;;;;13.27;7.20;;;;;;;;;;5038741;28;20594;-85
2022/03/10 05:35:17;;;;;;;13.13;7.70;;;;;;;;;;5019407;28;20609;-85
2022/03/10 05:38:22;;;;;;;15.83;7.17;;;;;;;;;;5054212;28;21172;-85
2022/03/10 05:41:26;;;;;;;16.57;7.83;;;;;;;;;;5054903;28;20603;-85
2022/03/10 05:44:31;;;;;;;13.23;7.27;;;;;;;;;;5051739;28;20600;-84
2022/03/10 05:47:38;;;;;;;13.37;7.27;;;;;;;;;;5034491;28;20599;-84
2022/03/10 05:50:43;;;;;;;12.07;6.93;;;;;;;;;;5048996;28;20654;-84
2022/03/10 05:53:50;;;;;;;14.27;7.40;;;;;;;;;;5039524;28;20616;-84
2022/03/10 05:56:54;;;;;;;11.17;7.30;;;;;;;;;;5051049;28;20555;-83
2022/03/10 05:59:59;;;;;;;16.70;9.50;;;;;;;;;;5039935;28;20633;-84
2022/03/10 06:03:03;;;;;;;15.87;10.10;;;;;;;;;;5030592;28;21212;-84
2022/03/10 06:06:11;;;;;;;20.03;10.63;;;;;;;;;;5053503;28;20614;-84
2022/03/10 06:09:15;;;;;;;19.33;10.50;;;;;;;;;;5030725;28;20637;-84
2022/03/10 06:12:21;;;;;;;12.77;7.90;;;;;;;;;;5041704;28;20890;-84
2022/03/10 06:15:29;;;;;;;17.50;8.50;;;;;;;;;;5030198;28;20604;-84
2022/03/10 06:18:36;;;;;;;15.00;8.13;;;;;;;;;;5030449;28;20550;-84
2022/03/10 06:21:40;;;;;;;17.90;9.20;;;;;;;;;;5029861;28;20605;-84
2022/03/10 06:24:45;;;;;;;16.10;8.53;;;;;;;;;;5041337;28;20539;-85
2022/03/10 06:27:50;;;;;;;16.50;8.63;;;;;;;;;;5032889;28;20554;-85
2022/03/10 06:30:54;;;;;;;15.33;9.03;;;;;;;;;;5029637;28;20639;-84
2022/03/10 06:33:58;;;;;;;20.13;8.30;;;;;;;;;;5030246;28;20593;-85
2022/03/10 06:37:06;;;;;;;13.03;7.53;;;;;;;;;;5030218;28;21090;-85
2022/03/10 06:40:11;;;;;;;11.67;7.80;;;;;;;;;;5044242;28;20657;-85
2022/03/10 06:43:19;;;;;;;15.70;8.40;;;;;;;;;;5050595;28;20541;-86
2022/03/10 06:46:24;;;;;;;18.07;9.27;;;;;;;;;;5041834;28;20542;-85
2022/03/10 06:49:28;;;;;;;16.13;8.80;;;;;;;;;;5041867;28;20618;-84
2022/03/10 06:52:33;;;;;;;15.57;9.10;;;;;;;;;;5068629;28;20659;-84
2022/03/10 06:55:38;;;;;;;16.70;9.60;;;;;;;;;;5054040;28;20589;-83
2022/03/10 06:58:43;;;;;;;16.57;10.07;;;;;;;;;;5065899;28;20582;-84
2022/03/10 07:01:48;;;;;;;15.80;10.43;;;;;;;;;;5066508;28;20550;-85
2022/03/10 07:04:52;;;;;;;18.07;10.43;;;;;;;;;;5053390;28;20610;-85
2022/03/10 07:07:57;;;;;;;18.53;10.80;;;;;;;;;;5076928;28;20543;-85
2022/03/10 07:11:01;;;;;;;17.40;10.37;;;;;;;;;;5053768;28;20626;-85
2022/03/10 07:14:07;;;;;;;18.40;11.20;;;;;;;;;;5065029;28;20906;-85
2022/03/10 07:17:12;;;;;;;22.57;11.37;;;;;;;;;;5064855;28;21186;-85
2022/03/10 07:20:18;;;;;;;13.53;8.93;;;;;;;;;;5065226;28;20629;-84
2022/03/10 07:23:24;;;;;;;16.23;8.27;;;;;;;;;;5064632;28;20972;-85
2022/03/10 07:26:31;;;;;;;13.87;8.17;;;;;;;;;;5053899;28;20601;-85
2022/03/10 07:29:38;;;;;;;14.67;7.87;;;;;;;;;;5076001;28;20629;-85
2022/03/10 07:32:43;;;;;;;11.23;7.13;;;;;;;;;;5053299;28;20558;-85
2022/03/10 07:35:47;;;;;;;14.43;7.90;;;;;;;;;;5053250;28;20594;-85
2022/03/10 07:38:52;;;;;;;12.47;7.47;;;;;;;;;;5075755;28;20601;-85
2022/03/10 07:41:58;;;;;;;15.63;7.97;;;;;;;;;;5052851;28;20601;-85
2022/03/10 07:45:04;;;;;;;11.63;6.63;;;;;;;;;;5053432;28;20511;-85
2022/03/10 07:48:08;;;;;;;12.23;7.13;;;;;;;;;;5064336;28;20191;-84
2022/03/10 07:51:12;;;;;;;10.30;6.37;;;;;;;;;;5041323;28;20219;-84
2022/03/10 07:54:16;;;;;;;10.47;7.17;;;;;;;;;;5076357;28;20650;-84
2022/03/10 07:57:21;;;;;;;12.00;7.00;;;;;;;;;;5053180;28;20191;-85
2022/03/10 08:00:25;;;;;;;9.90;6.77;;;;;;;;;;5052917;28;20562;-85
2022/03/10 08:03:29;;;;;;;11.57;6.63;;;;;;;;;;5047284;28;20544;-85
2022/03/10 08:06:34;;;;;;;13.10;7.67;;;;;;;;;;5021442;28;20184;-85
2022/03/10 08:09:38;;;;;;;11.77;6.83;;;;;;;;;;5031880;28;20220;-85
2022/03/10 08:12:42;;;;;;;9.20;6.33;;;;;;;;;;5032889;28;20192;-85
2022/03/10 08:15:47;;;;;;;10.13;6.83;;;;;;;;;;5021362;28;20223;-85
2022/03/10 08:18:51;;;;;;;10.47;6.80;;;;;;;;;;5044223;28;20181;-84
2022/03/10 08:21:55;;;;;;;10.37;6.10;;;;;;;;;;5032648;28;20176;-85
2022/03/10 08:24:59;;;;;;;12.03;7.30;;;;;;;;;;5021820;28;20176;-85
2022/03/10 08:28:05;;;;;;;10.87;7.07;;;;;;;;;;5021583;28;20180;-85
2022/03/10 08:31:10;;;;;;;11.10;6.43;;;;;;;;;;5020951;28;20211;-85
2022/03/10 08:34:16;;;;;;;10.17;6.27;;;;;;;;;;5021225;28;20208;-84
2022/03/10 08:37:20;;;;;;;10.97;6.70;;;;;;;;;;5020951;28;20176;-84
2022/03/10 08:40:24;;;;;;;10.70;6.63;;;;;;;;;;5055347;28;20211;-85
2022/03/10 08:43:31;;;;;;;10.53;6.67;;;;;;;;;;5021108;28;20180;-85
2022/03/10 08:46:35;;;;;;;11.27;6.60;;;;;;;;;;5020900;28;20173;-85
2022/03/10 08:49:39;;;;;;;10.50;6.80;;;;;;;;;;5043506;28;20220;-85
2022/03/10 08:52:43;;;;;;;8.60;6.53;;;;;;;;;;5032118;28;20184;-85
2022/03/10 08:55:47;;;;;;;11.63;6.93;;;;;;;;;;5032208;28;20539;-85
2022/03/10 08:58:52;;;;;;;15.10;6.77;;;;;;;;;;5022279;28;20207;-83
2022/03/10 09:01:57;;;;;;;9.77;6.00;;;;;;;;;;5044998;28;20200;-84
2022/03/10 09:05:02;;;;;;;11.57;6.17;;;;;;;;;;5022815;28;20176;-84
2022/03/10 09:08:06;;;;;;;8.87;6.60;;;;;;;;;;5021706;28;20202;-84
2022/03/10 09:11:10;;;;;;;9.17;6.20;;;;;;;;;;5043386;28;20245;-84
2022/03/10 09:14:15;;;;;;;9.17;6.03;;;;;;;;;;5021535;28;20180;-84
2022/03/10 09:17:19;;;;;;;8.93;6.13;;;;;;;;;;5055629;28;20513;-84
2022/03/10 09:20:24;;;;;;;10.60;6.73;;;;;;;;;;5032605;28;20212;-84
2022/03/10 09:23:30;;;;;;;10.33;6.20;;;;;;;;;;5044042;28;20551;-84
2022/03/10 09:26:38;;;;;;;12.27;6.40;;;;;;;;;;5044024;28;20543;-84
2022/03/10 09:29:44;;;;;;;8.97;6.40;;;;;;;;;;5054703;28;20617;-84
2022/03/10 09:32:49;;;;;;;11.23;5.90;;;;;;;;;;5020030;28;20528;-84
2022/03/10 09:35:56;;;;;;;10.70;6.53;;;;;;;;;;5031039;28;20221;-84
2022/03/10 09:39:04;;;;;;;10.70;6.13;;;;;;;;;;5054485;28;20196;-84
2022/03/10 09:42:11;;;;;;;9.50;6.40;;;;;;;;;;5019816;28;20187;-84
2022/03/10 09:46:41;;;;;;;7.87;5.80;;;;;;;;;;5058864;28;20176;-84
2022/03/10 09:49:46;;;;;;;10.47;6.73;;;;;;;;;;5030779;28;20223;-84
2022/03/10 09:52:50;;;;;;;11.83;7.13;;;;;;;;;;5031564;28;20188;-84
2022/03/10 09:55:55;;;;;;;16.53;7.13;;;;;;;;;;5043095;28;20207;-84
2022/03/10 09:58:59;;;;;;;8.37;6.10;;;;;;;;;;5054052;28;20187;-84
2022/03/10 10:02:05;;;;;;;10.00;6.43;;;;;;;;;;5019798;28;20204;-84
2022/03/10 10:05:25;;;;;;;9.77;6.33;;;;;;;;;;5041909;28;20168;-84
2022/03/10 10:08:34;;;;;;;8.80;6.63;;;;;;;;;;5019539;28;20188;-84
2022/03/10 10:11:39;;;;;;;8.67;6.20;;;;;;;;;;5053460;28;20180;-84
2022/03/10 10:14:47;;;;;;;10.47;5.37;;;;;;;;;;5041999;28;20545;-84
2022/03/10 10:17:56;;;;;;;9.07;5.90;;;;;;;;;;5041917;28;20678;-84
2022/03/10 10:21:01;;;;;;;11.97;6.13;;;;;;;;;;5042647;28;20556;-84
2022/03/10 10:24:16;;;;;;;7.93;6.03;;;;;;;;;;5019144;28;20189;-84
2022/03/10 10:27:26;;;;;;;8.27;5.80;;;;;;;;;;5019343;28;20176;-84
2022/03/10 10:34:09;;;;;;;10.27;5.77;;;;;;;;;;5029703;28;20647;-84
2022/03/10 10:37:26;;;;;;;10.33;5.47;;;;;;;;;;5019102;28;20184;-85
2022/03/10 10:40:37;;;;;;;8.00;5.10;;;;;;;;;;5041003;28;20227;-85
2022/03/10 10:43:49;;;;;;;7.00;5.37;;;;;;;;;;5053548;28;20196;-84
2022/03/10 10:47:00;;;;;;;6.50;4.80;;;;;;;;;;5019140;28;20187;-84
2022/03/10 10:50:06;;;;;;;7.40;4.77;;;;;;;;;;5041695;28;20228;-84
2022/03/10 10:53:29;;;;;;;9.20;5.20;;;;;;;;;;5041609;28;20176;-84
2022/03/10 10:56:34;;;;;;;7.30;4.70;;;;;;;;;;5041430;28;20228;-84
2022/03/10 10:59:41;;;;;;;11.50;4.40;;;;;;;;;;5052890;28;20220;-84
2022/03/10 11:02:47;;;;;;;5.97;4.63;;;;;;;;;;5041449;28;20199;-84
2022/03/10 11:05:55;;;;;;;8.30;4.07;;;;;;;;;;5030127;28;20652;-84
2022/03/10 11:09:03;;;;;;;8.30;5.63;;;;;;;;;;5041808;28;20188;-84
2022/03/10 11:12:13;;;;;;;7.13;4.90;;;;;;;;;;5029782;28;20176;-84
2022/03/10 11:15:20;;;;;;;7.53;5.20;;;;;;;;;;5030981;28;20212;-84
2022/03/10 11:18:26;;;;;;;5.63;4.33;;;;;;;;;;5029666;28;20180;-84
2022/03/10 11:21:54;;;;;;;8.13;5.10;;;;;;;;;;5055246;28;20209;-84
2022/03/10 11:25:42;;;;;;;7.73;4.47;;;;;;;;;;5045446;28;20643;-84
2022/03/10 11:28:49;;;;;;;6.67;5.20;;;;;;;;;;5008130;28;20530;-84
2022/03/10 11:31:55;;;;;;;6.27;4.67;;;;;;;;;;5038124;28;20547;-85
2022/03/10 11:35:04;;;;;;;7.13;5.13;;;;;;;;;;5049883;28;20184;-86
2022/03/10 11:38:10;;;;;;;7.57;5.17;;;;;;;;;;5038510;28;20531;-86
2022/03/10 11:41:14;;;;;;;11.87;5.50;;;;;;;;;;5030689;28;20192;-86
2022/03/10 11:44:20;;;;;;;6.07;4.57;;;;;;;;;;5038079;28;20222;-86
2022/03/10 11:47:24;;;;;;;8.23;5.50;;;;;;;;;;5041642;28;20187;-86
2022/03/10 11:50:29;;;;;;;8.07;5.90;;;;;;;;;;5052884;28;20235;-86
2022/03/10 11:53:53;;;;;;;9.67;5.63;;;;;;;;;;5064329;28;20183;-86
2022/03/10 11:56:59;;;;;;;8.90;5.43;;;;;;;;;;5063828;28;20215;-86
2022/03/10 12:00:04;;;;;;;8.93;6.60;;;;;;;;;;5064434;28;20215;-86
2022/03/10 12:03:27;;;;;;;7.50;5.27;;;;;;;;;;5063798;28;20666;-85
2022/03/10 12:06:32;;;;;;;7.80;5.23;;;;;;;;;;5041447;28;20175;-86
2022/03/10 12:09:39;;;;;;;12.33;6.50;;;;;;;;;;5055833;28;20713;-85
2022/03/10 12:12:46;;;;;;;8.07;5.77;;;;;;;;;;5051447;28;20218;-85
2022/03/10 12:15:50;;;;;;;10.23;5.90;;;;;;;;;;5052809;28;20697;-86
2022/03/10 12:18:55;;;;;;;8.97;5.93;;;;;;;;;;5051899;28;20194;-86
2022/03/10 12:22:01;;;;;;;8.87;5.60;;;;;;;;;;5040662;28;20195;-86
2022/03/10 12:25:22;;;;;;;8.20;5.57;;;;;;;;;;5052496;28;20176;-85
2022/03/10 12:28:32;;;;;;;17.87;6.10;;;;;;;;;;5040795;28;20184;-86
2022/03/10 12:31:39;;;;;;;14.47;6.10;;;;;;;;;;5040729;28;20286;-86
2022/03/10 12:34:45;;;;;;;10.17;6.47;;;;;;;;;;5058339;28;20191;-85
2022/03/10 12:37:50;;;;;;;8.30;6.03;;;;;;;;;;5052040;28;20191;-85
2022/03/10 12:40:57;;;;;;;7.30;5.27;;;;;;;;;;5049365;28;20219;-85
2022/03/10 12:44:03;;;;;;;9.53;6.10;;;;;;;;;;5052022;28;20642;-85
2022/03/10 12:47:10;;;;;;;7.83;5.77;;;;;;;;;;5052957;28;20180;-86
2022/03/10 12:50:14;;;;;;;9.60;6.00;;;;;;;;;;5063362;28;20227;-85
2022/03/10 12:53:19;;;;;;;9.77;6.20;;;;;;;;;;5028962;23;20237;-88
2022/03/10 12:56:24;;;;;;;9.27;6.53;;;;;;;;;;4998786;28;20205;-88
2022/03/10 12:59:33;;;;;;;10.00;6.13;;;;;;;;;;5008563;28;20189;-88
2022/03/10 13:02:40;;;;;;;9.53;5.80;;;;;;;;;;4970918;28;20230;-88
2022/03/10 13:05:44;;;;;;;9.60;5.87;;;;;;;;;;4970555;28;20198;-87
2022/03/10 13:08:53;;;;;;;9.17;6.30;;;;;;;;;;5003227;28;20537;-88
2022/03/10 13:11:58;;;;;;;14.80;7.53;;;;;;;;;;4952605;28;20219;-87
2022/03/10 13:15:03;;;;;;;11.50;6.97;;;;;;;;;;4962690;28;20202;-87
2022/03/10 13:18:10;;;;;;;9.40;6.67;;;;;;;;;;4982229;28;20193;-88
2022/03/10 13:21:16;;;;;;;12.63;6.50;;;;;;;;;;4963154;28;20618;-87
2022/03/10 13:24:49;;;;;;;9.07;6.50;;;;;;;;;;4976658;28;20194;-87
2022/03/10 13:28:03;;;;;;;14.07;6.70;;;;;;;;;;4963437;28;20183;-87
2022/03/10 13:31:07;;;;;;;10.70;5.90;;;;;;;;;;4952092;28;20190;-86
2022/03/10 13:34:11;;;;;;;9.23;6.47;;;;;;;;;;4971397;28;20214;-87
2022/03/10 13:37:17;;;;;;;9.50;6.67;;;;;;;;;;4986327;28;20214;-87
2022/03/10 13:40:21;;;;;;;12.07;6.80;;;;;;;;;;4974095;28;20198;-88
2022/03/10 13:43:29;;;;;;;10.87;6.50;;;;;;;;;;4998437;28;20710;-87
2022/03/10 13:46:33;;;;;;;8.90;6.00;;;;;;;;;;4983758;28;20194;-88
2022/03/10 13:49:43;;;;;;;12.10;6.87;;;;;;;;;;4982197;28;20198;-88
2022/03/10 13:52:50;;;;;;;8.73;5.83;;;;;;;;;;4981435;28;20608;-87
2022/03/10 13:55:58;;;;;;;10.63;6.53;;;;;;;;;;4950966;28;20206;-88
2022/03/10 13:59:04;;;;;;;8.97;5.80;;;;;;;;;;4962501;28;20183;-87
2022/03/10 14:02:18;;;;;;;10.60;6.00;;;;;;;;;;4965589;28;20222;-88
2022/03/10 14:05:23;;;;;;;8.33;5.80;;;;;;;;;;4961829;28;20273;-88
2022/03/10 14:08:28;;;;;;;7.70;5.53;;;;;;;;;;4948877;28;20183;-88
2022/03/10 14:11:33;;;;;;;11.30;5.73;;;;;;;;;;4963633;28;20222;-86
2022/03/10 14:14:37;;;;;;;6.80;5.50;;;;;;;;;;4980512;28;20648;-88
2022/03/10 14:17:42;;;;;;;9.33;5.63;;;;;;;;;;4980292;28;20660;-89
2022/03/10 14:20:51;;;;;;;8.83;5.77;;;;;;;;;;4991533;28;20183;-89
2022/03/10 14:23:56;;;;;;;8.30;4.67;;;;;;;;;;4961688;28;20187;-87
2022/03/10 14:27:06;;;;;;;6.47;4.50;;;;;;;;;;4951087;28;20187;-87
2022/03/10 14:30:12;;;;;;;6.63;4.73;;;;;;;;;;4962945;28;20535;-87
2022/03/10 14:33:18;;;;;;;9.20;4.73;;;;;;;;;;4951025;28;20226;-87
2022/03/10 14:36:23;;;;;;;6.80;4.73;;;;;;;;;;4962030;28;20214;-87
2022/03/10 14:39:27;;;;;;;11.13;4.27;;;;;;;;;;4963113;28;20199;-87
2022/03/10 14:42:31;;;;;;;5.87;4.37;;;;;;;;;;4951345;28;20222;-87
2022/03/10 14:45:37;;;;;;;7.33;4.30;;;;;;;;;;4951817;28;20179;-88
2022/03/10 14:48:42;;;;;;;5.17;4.13;;;;;;;;;;4952206;28;20205;-87
2022/03/10 14:51:46;;;;;;;6.10;4.43;;;;;;;;;;4963229;28;20226;-87
2022/03/10 14:54:50;;;;;;;5.77;4.10;;;;;;;;;;4951559;28;20637;-87
2022/03/10 14:57:55;;;;;;;6.90;3.80;;;;;;;;;;4951167;28;20202;-87
2022/03/10 15:00:59;;;;;;;7.87;4.30;;;;;;;;;;4962107;28;20542;-87
2022/03/10 15:04:05;;;;;;;6.83;4.43;;;;;;;;;;4950922;28;20198;-88
2022/03/10 15:07:08;;;;;;;8.23;4.47;;;;;;;;;;4962453;28;20198;-87
2022/03/10 15:10:18;;;;;;;5.83;4.00;;;;;;;;;;4951405;28;20179;-87
2022/03/10 15:13:22;;;;;;;5.60;3.80;;;;;;;;;;4951982;28;20214;-87
2022/03/10 15:16:27;;;;;;;14.00;4.77;;;;;;;;;;4974265;28;20211;-87
2022/03/10 15:19:32;;;;;;;8.37;3.73;;;;;;;;;;4964461;28;20203;-87
2022/03/10 15:22:54;;;;;;;5.77;4.57;;;;;;;;;;4954318;28;20218;-87
2022/03/10 15:26:04;;;;;;;6.50;3.80;;;;;;;;;;4965959;28;20184;-87
2022/03/10 15:29:08;;;;;;;3.93;3.37;;;;;;;;;;4954397;28;20626;-87
2022/03/10 15:32:13;;;;;;;4.97;3.10;;;;;;;;;;4954460;28;20206;-87
2022/03/10 15:35:19;;;;;;;3.87;2.97;;;;;;;;;;4965273;28;20206;-87
2022/03/10 15:38:23;;;;;;;4.23;2.90;;;;;;;;;;4964757;28;20215;-87
2022/03/10 15:41:28;;;;;;;3.83;2.80;;;;;;;;;;4954824;28;20214;-87
2022/03/10 15:44:32;;;;;;;5.73;2.93;;;;;;;;;;4965092;28;20188;-87
2022/03/10 15:47:36;;;;;;;4.20;2.97;;;;;;;;;;4965985;28;20171;-87
2022/03/10 15:50:41;;;;;;;5.03;2.40;;;;;;;;;;4954183;28;20203;-86
2022/03/10 15:53:44;;;;;;;4.47;2.90;;;;;;;;;;4954078;28;20175;-86
2022/03/10 15:56:49;;;;;;;4.00;2.87;;;;;;;;;;4953749;28;20550;-86
2022/03/10 15:59:53;;;;;;;7.87;4.40;;;;;;;;;;4954133;28;20195;-87
2022/03/10 16:03:00;;;;;;;3.47;2.60;;;;;;;;;;4964376;28;20222;-86
2022/03/10 16:06:04;;;;;;;4.20;2.63;;;;;;;;;;4933672;29;20184;-87
2022/03/10 16:09:09;;;;;;;4.23;2.87;;;;;;;;;;4970931;28;20194;-87
2022/03/10 16:12:13;;;;;;;4.17;3.10;;;;;;;;;;4952257;28;20223;-87
2022/03/10 16:15:19;;;;;;;3.73;2.80;;;;;;;;;;4954868;28;20191;-87
2022/03/10 16:18:25;;;;;;;3.90;3.13;;;;;;;;;;4963335;28;20214;-87
2022/03/10 16:21:29;;;;;;;4.37;2.97;;;;;;;;;;4963247;28;20214;-87
2022/03/10 16:24:34;;;;;;;4.70;3.27;;;;;;;;;;4963395;28;20183;-87
2022/03/10 16:27:40;;;;;;;7.87;3.30;;;;;;;;;;4948487;28;20184;-88
2022/03/10 16:30:45;;;;;;;6.73;3.50;;;;;;;;;;4945374;28;20196;-88
2022/03/10 16:33:49;;;;;;;6.00;3.10;;;;;;;;;;4954205;29;20180;-89
2022/03/10 16:36:54;;;;;;;6.13;3.63;;;;;;;;;;4954154;29;20551;-88
2022/03/10 16:39:58;;;;;;;7.00;3.73;;;;;;;;;;4954949;28;20535;-86
2022/03/10 16:43:04;;;;;;;5.50;3.37;;;;;;;;;;4963565;28;20535;-87
2022/03/10 16:46:07;;;;;;;5.97;3.10;;;;;;;;;;4965111;28;20186;-88
2022/03/10 16:49:13;;;;;;;5.70;2.90;;;;;;;;;;4933875;29;20183;-88
2022/03/10 16:52:17;;;;;;;5.13;3.40;;;;;;;;;;4949504;28;20226;-87
2022/03/10 16:55:22;;;;;;;10.50;3.40;;;;;;;;;;4974223;28;20183;-87
2022/03/10 16:58:29;;;;;;;8.50;3.17;;;;;;;;;;4973715;28;20546;-87
2022/03/10 17:01:33;;;;;;;5.40;3.27;;;;;;;;;;4978932;28;20707;-87
2022/03/10 17:04:39;;;;;;;7.33;3.90;;;;;;;;;;4982596;28;20197;-87
2022/03/10 17:07:44;;;;;;;4.70;3.30;;;;;;;;;;4982700;28;20541;-87
2022/03/10 17:10:52;;;;;;;6.90;3.20;;;;;;;;;;4971526;28;20186;-87
2022/03/10 17:13:57;;;;;;;15.83;3.90;;;;;;;;;;4967232;28;20198;-87
2022/03/10 17:17:02;;;;;;;3.60;2.60;;;;;;;;;;4972533;28;20369;-87
2022/03/10 17:20:06;;;;;;;5.77;3.07;;;;;;;;;;4966637;28;20187;-87
2022/03/10 17:23:10;;;;;;;5.77;3.13;;;;;;;;;;4982309;28;20214;-87
2022/03/10 17:26:15;;;;;;;4.07;2.73;;;;;;;;;;4943710;29;20184;-87
2022/03/10 17:29:19;;;;;;;5.67;3.00;;;;;;;;;;4944147;29;20618;-87
2022/03/10 17:32:23;;;;;;;6.30;3.00;;;;;;;;;;4953916;29;20219;-87
2022/03/10 17:35:27;;;;;;;10.97;4.20;;;;;;;;;;4943102;29;20203;-87
2022/03/10 17:38:31;;;;;;;6.30;3.63;;;;;;;;;;4972883;28;20569;-89
2022/03/10 17:41:35;;;;;;;6.13;4.03;;;;;;;;;;4952834;28;20222;-87
2022/03/10 17:44:40;;;;;;;8.07;3.47;;;;;;;;;;4963935;28;20195;-86
2022/03/10 17:47:46;;;;;;;3.70;2.93;;;;;;;;;;4956322;28;20186;-87
2022/03/10 17:50:50;;;;;;;4.87;3.27;;;;;;;;;;4953592;28;20531;-87
2022/03/10 17:54:00;;;;;;;7.27;3.07;;;;;;;;;;4962950;28;20649;-87
2022/03/10 17:57:04;;;;;;;4.40;3.07;;;;;;;;;;4962306;28;20219;-87
2022/03/10 18:00:10;;;;;;;4.60;3.03;;;;;;;;;;4965618;28;20194;-87
2022/03/10 18:03:17;;;;;;;5.20;3.13;;;;;;;;;;4962054;28;20223;-88
2022/03/10 18:06:22;;;;;;;5.73;2.93;;;;;;;;;;4973607;28;20669;-87
2022/03/10 18:09:29;;;;;;;4.13;2.93;;;;;;;;;;4962450;28;20188;-87
2022/03/10 18:12:35;;;;;;;4.90;3.03;;;;;;;;;;4978075;28;20222;-88
2022/03/10 18:15:39;;;;;;;5.30;3.10;;;;;;;;;;4974921;28;20191;-87
2022/03/10 18:18:43;;;;;;;5.20;3.33;;;;;;;;;;4953377;28;20673;-87
2022/03/10 18:21:50;;;;;;;4.80;3.23;;;;;;;;;;4981673;28;20226;-87
2022/03/10 18:24:54;;;;;;;5.50;3.57;;;;;;;;;;4992560;28;20187;-88
2022/03/10 18:27:58;;;;;;;4.23;3.53;;;;;;;;;;4951149;28;20183;-88
2022/03/10 18:31:05;;;;;;;5.23;3.53;;;;;;;;;;4951302;28;20187;-88
2022/03/10 18:34:09;;;;;;;4.50;3.10;;;;;;;;;;4952977;28;20526;-88
2022/03/10 18:37:16;;;;;;;5.13;3.30;;;;;;;;;;4970963;28;20646;-88